sensor_id;sensor_type;location;lat;lon;timestamp;pressure;altitude;pressure_sealevel;temperature;humidity
56831;BME280;42713;42.676;23.352;2022-10-20T00:00:56;95248.84;;;13.87;65.63
56831;BME280;42713;42.676;23.352;2022-10-20T00:03:23;95253.06;;;13.88;65.91
56831;BME280;42713;42.676;23.352;2022-10-20T00:05:48;95257.00;;;13.85;66.26
56831;BME280;42713;42.676;23.352;2022-10-20T00:08:14;95249.59;;;13.82;66.16
56831;BME280;42713;42.676;23.352;2022-10-20T00:10:39;95247.50;;;13.84;66.25
56831;BME280;42713;42.676;23.352;2022-10-20T00:13:05;95244.63;;;13.86;65.83
56831;BME280;42713;42.676;23.352;2022-10-20T00:15:30;95247.50;;;13.84;66.02
56831;BME280;42713;42.676;23.352;2022-10-20T00:17:55;95245.69;;;13.85;65.81
56831;BME280;42713;42.676;23.352;2022-10-20T00:20:21;95245.16;;;13.88;65.98
56831;BME280;42713;42.676;23.352;2022-10-20T00:22:46;95252.22;;;13.82;64.75
56831;BME280;42713;42.676;23.352;2022-10-20T00:25:12;95239.00;;;13.77;64.94
56831;BME280;42713;42.676;23.352;2022-10-20T00:27:37;95257.94;;;13.74;64.86
56831;BME280;42713;42.676;23.352;2022-10-20T00:30:03;95246.84;;;13.72;64.72
56831;BME280;42713;42.676;23.352;2022-10-20T00:32:28;95245.59;;;13.75;63.97
56831;BME280;42713;42.676;23.352;2022-10-20T00:34:54;95237.13;;;13.73;64.33
56831;BME280;42713;42.676;23.352;2022-10-20T00:37:20;95231.56;;;13.69;63.69
56831;BME280;42713;42.676;23.352;2022-10-20T00:39:46;95236.03;;;13.68;63.59
56831;BME280;42713;42.676;23.352;2022-10-20T00:42:16;95241.06;;;13.70;63.50
56831;BME280;42713;42.676;23.352;2022-10-20T00:44:54;95222.09;;;13.68;62.97
56831;BME280;42713;42.676;23.352;2022-10-20T00:47:43;95233.41;;;13.68;62.83
56831;BME280;42713;42.676;23.352;2022-10-20T00:50:23;95252.38;;;13.70;62.91
56831;BME280;42713;42.676;23.352;2022-10-20T00:52:50;95220.69;;;13.60;62.28
56831;BME280;42713;42.676;23.352;2022-10-20T00:55:20;95220.88;;;13.53;62.55
56831;BME280;42713;42.676;23.352;2022-10-20T00:57:49;95232.50;;;13.58;62.04
56831;BME280;42713;42.676;23.352;2022-10-20T01:00:15;95224.88;;;13.56;62.17
56831;BME280;42713;42.676;23.352;2022-10-20T01:02:42;95232.97;;;13.49;61.99
56831;BME280;42713;42.676;23.352;2022-10-20T01:05:08;95224.81;;;13.51;61.38
56831;BME280;42713;42.676;23.352;2022-10-20T01:07:35;95235.34;;;13.51;61.51
56831;BME280;42713;42.676;23.352;2022-10-20T01:10:01;95240.84;;;13.49;61.37
56831;BME280;42713;42.676;23.352;2022-10-20T01:20:48;95229.09;;;13.35;61.24
56831;BME280;42713;42.676;23.352;2022-10-20T01:29:00;95240.59;;;13.29;60.65
56831;BME280;42713;42.676;23.352;2022-10-20T01:31:33;95239.44;;;13.19;61.15
56831;BME280;42713;42.676;23.352;2022-10-20T01:34:30;95232.63;;;13.23;60.38
56831;BME280;42713;42.676;23.352;2022-10-20T01:37:01;95228.19;;;13.24;61.07
56831;BME280;42713;42.676;23.352;2022-10-20T01:39:35;95227.19;;;13.30;60.66
56831;BME280;42713;42.676;23.352;2022-10-20T01:42:09;95227.19;;;13.30;60.63
56831;BME280;42713;42.676;23.352;2022-10-20T01:44:37;95227.06;;;13.20;60.80
56831;BME280;42713;42.676;23.352;2022-10-20T01:47:04;95232.13;;;13.21;60.87
56831;BME280;42713;42.676;23.352;2022-10-20T01:49:31;95233.16;;;13.20;60.69
56831;BME280;42713;42.676;23.352;2022-10-20T01:52:00;95229.66;;;13.15;61.10
56831;BME280;42713;42.676;23.352;2022-10-20T01:54:28;95238.59;;;13.14;61.51
56831;BME280;42713;42.676;23.352;2022-10-20T02:00:12;95239.94;;;12.94;62.40
56831;BME280;42713;42.676;23.352;2022-10-20T02:08:12;95244.13;;;12.73;63.30
56831;BME280;42713;42.676;23.352;2022-10-20T02:10:44;95248.91;;;12.76;62.79
56831;BME280;42713;42.676;23.352;2022-10-20T02:13:20;95255.69;;;12.72;63.17
56831;BME280;42713;42.676;23.352;2022-10-20T02:15:55;95258.00;;;12.68;63.23
56831;BME280;42713;42.676;23.352;2022-10-20T02:18:33;95261.66;;;12.67;63.71
56831;BME280;42713;42.676;23.352;2022-10-20T02:21:01;95268.91;;;12.60;63.64
56831;BME280;42713;42.676;23.352;2022-10-20T02:23:29;95262.00;;;12.54;63.96
56831;BME280;42713;42.676;23.352;2022-10-20T02:25:56;95262.06;;;12.59;64.13
56831;BME280;42713;42.676;23.352;2022-10-20T02:28:25;95262.78;;;12.54;64.23
56831;BME280;42713;42.676;23.352;2022-10-20T02:30:51;95256.44;;;12.50;64.13
56831;BME280;42713;42.676;23.352;2022-10-20T02:33:18;95265.91;;;12.51;63.98
56831;BME280;42713;42.676;23.352;2022-10-20T02:35:49;95256.13;;;12.47;64.11
56831;BME280;42713;42.676;23.352;2022-10-20T02:38:18;95266.63;;;12.47;64.58
56831;BME280;42713;42.676;23.352;2022-10-20T02:40:43;95263.59;;;12.38;65.13
56831;BME280;42713;42.676;23.352;2022-10-20T02:43:09;95276.09;;;12.30;65.50
56831;BME280;42713;42.676;23.352;2022-10-20T02:45:34;95281.91;;;12.33;64.78
56831;BME280;42713;42.676;23.352;2022-10-20T02:48:00;95272.44;;;12.32;64.36
56831;BME280;42713;42.676;23.352;2022-10-20T02:50:25;95276.56;;;12.27;64.93
56831;BME280;42713;42.676;23.352;2022-10-20T02:52:51;95276.00;;;12.25;64.69
56831;BME280;42713;42.676;23.352;2022-10-20T02:55:16;95279.44;;;12.26;64.37
56831;BME280;42713;42.676;23.352;2022-10-20T02:57:41;95285.25;;;12.28;64.52
56831;BME280;42713;42.676;23.352;2022-10-20T03:00:07;95287.66;;;12.29;64.33
56831;BME280;42713;42.676;23.352;2022-10-20T03:02:33;95278.00;;;12.35;64.44
56831;BME280;42713;42.676;23.352;2022-10-20T03:04:59;95289.00;;;12.32;64.22
56831;BME280;42713;42.676;23.352;2022-10-20T03:07:25;95291.22;;;12.23;63.92
56831;BME280;42713;42.676;23.352;2022-10-20T03:09:50;95282.53;;;12.06;64.82
56831;BME280;42713;42.676;23.352;2022-10-20T03:12:16;95281.75;;;12.05;65.23
56831;BME280;42713;42.676;23.352;2022-10-20T03:14:41;95285.84;;;12.01;65.07
56831;BME280;42713;42.676;23.352;2022-10-20T03:17:07;95288.97;;;11.98;64.97
56831;BME280;42713;42.676;23.352;2022-10-20T03:19:33;95284.50;;;11.98;65.27
56831;BME280;42713;42.676;23.352;2022-10-20T03:21:58;95291.59;;;11.98;65.29
56831;BME280;42713;42.676;23.352;2022-10-20T03:24:24;95300.88;;;11.89;65.54
56831;BME280;42713;42.676;23.352;2022-10-20T03:26:49;95303.94;;;11.86;65.92
56831;BME280;42713;42.676;23.352;2022-10-20T03:29:15;95303.63;;;11.82;65.86
56831;BME280;42713;42.676;23.352;2022-10-20T03:31:40;95304.19;;;11.84;66.30
56831;BME280;42713;42.676;23.352;2022-10-20T03:34:06;95300.19;;;11.81;66.24
56831;BME280;42713;42.676;23.352;2022-10-20T03:36:31;95306.63;;;11.74;66.33
56831;BME280;42713;42.676;23.352;2022-10-20T03:38:57;95300.81;;;11.72;67.10
56831;BME280;42713;42.676;23.352;2022-10-20T03:41:22;95307.53;;;11.79;66.05
56831;BME280;42713;42.676;23.352;2022-10-20T03:43:47;95310.94;;;11.80;66.34
56831;BME280;42713;42.676;23.352;2022-10-20T03:46:13;95309.25;;;11.74;66.94
56831;BME280;42713;42.676;23.352;2022-10-20T03:48:39;95320.53;;;11.74;66.84
56831;BME280;42713;42.676;23.352;2022-10-20T03:51:06;95313.47;;;11.75;66.26
56831;BME280;42713;42.676;23.352;2022-10-20T03:53:33;95316.44;;;11.78;66.89
56831;BME280;42713;42.676;23.352;2022-10-20T03:56:04;95322.59;;;11.72;66.88
56831;BME280;42713;42.676;23.352;2022-10-20T03:58:29;95318.38;;;11.71;66.86
56831;BME280;42713;42.676;23.352;2022-10-20T04:00:55;95323.63;;;11.71;66.18
56831;BME280;42713;42.676;23.352;2022-10-20T04:03:21;95320.22;;;11.71;66.61
56831;BME280;42713;42.676;23.352;2022-10-20T04:05:47;95318.72;;;11.75;66.80
56831;BME280;42713;42.676;23.352;2022-10-20T04:08:12;95322.06;;;11.70;66.83
56831;BME280;42713;42.676;23.352;2022-10-20T04:10:38;95324.69;;;11.70;66.49
56831;BME280;42713;42.676;23.352;2022-10-20T04:13:03;95326.41;;;11.64;66.99
56831;BME280;42713;42.676;23.352;2022-10-20T04:15:29;95322.19;;;11.63;66.90
56831;BME280;42713;42.676;23.352;2022-10-20T04:17:55;95329.72;;;11.60;67.63
56831;BME280;42713;42.676;23.352;2022-10-20T04:20:20;95320.16;;;11.53;67.24
56831;BME280;42713;42.676;23.352;2022-10-20T04:22:46;95322.06;;;11.58;67.19
56831;BME280;42713;42.676;23.352;2022-10-20T04:25:11;95329.16;;;11.58;67.34
56831;BME280;42713;42.676;23.352;2022-10-20T04:27:38;95324.38;;;11.55;67.25
56831;BME280;42713;42.676;23.352;2022-10-20T04:30:04;95329.63;;;11.55;67.81
56831;BME280;42713;42.676;23.352;2022-10-20T04:32:30;95324.28;;;11.49;68.02
56831;BME280;42713;42.676;23.352;2022-10-20T04:34:55;95334.06;;;11.54;67.38
56831;BME280;42713;42.676;23.352;2022-10-20T04:37:21;95324.81;;;11.51;67.58
56831;BME280;42713;42.676;23.352;2022-10-20T04:39:46;95332.25;;;11.55;67.66
56831;BME280;42713;42.676;23.352;2022-10-20T04:42:11;95331.66;;;11.52;68.35
56831;BME280;42713;42.676;23.352;2022-10-20T04:44:38;95331.66;;;11.52;67.90
56831;BME280;42713;42.676;23.352;2022-10-20T04:47:03;95340.69;;;11.57;68.01
56831;BME280;42713;42.676;23.352;2022-10-20T04:49:28;95334.88;;;11.55;67.57
56831;BME280;42713;42.676;23.352;2022-10-20T04:51:54;95338.84;;;11.57;67.77
56831;BME280;42713;42.676;23.352;2022-10-20T04:54:19;95337.72;;;11.53;68.59
56831;BME280;42713;42.676;23.352;2022-10-20T04:56:45;95340.13;;;11.55;67.42
56831;BME280;42713;42.676;23.352;2022-10-20T04:59:10;95338.63;;;11.47;67.87
56831;BME280;42713;42.676;23.352;2022-10-20T05:01:36;95348.34;;;11.46;67.82
56831;BME280;42713;42.676;23.352;2022-10-20T05:04:02;95347.22;;;11.42;68.27
56831;BME280;42713;42.676;23.352;2022-10-20T05:06:29;95357.38;;;11.50;68.79
56831;BME280;42713;42.676;23.352;2022-10-20T05:08:57;95352.91;;;11.51;67.53
56831;BME280;42713;42.676;23.352;2022-10-20T05:11:24;95359.09;;;11.45;68.33
56831;BME280;42713;42.676;23.352;2022-10-20T05:13:51;95357.25;;;11.45;67.85
56831;BME280;42713;42.676;23.352;2022-10-20T05:16:16;95357.69;;;11.42;68.38
56831;BME280;42713;42.676;23.352;2022-10-20T05:18:42;95359.28;;;11.43;67.65
56831;BME280;42713;42.676;23.352;2022-10-20T05:21:11;95368.19;;;11.42;68.22
56831;BME280;42713;42.676;23.352;2022-10-20T05:23:38;95379.50;;;11.43;68.57
56831;BME280;42713;42.676;23.352;2022-10-20T05:26:09;95377.00;;;11.36;68.34
56831;BME280;42713;42.676;23.352;2022-10-20T05:28:34;95380.63;;;11.35;68.99
56831;BME280;42713;42.676;23.352;2022-10-20T05:31:04;95381.44;;;11.35;68.88
56831;BME280;42713;42.676;23.352;2022-10-20T05:33:30;95400.03;;;11.34;68.94
56831;BME280;42713;42.676;23.352;2022-10-20T05:35:55;95388.06;;;11.38;68.69
56831;BME280;42713;42.676;23.352;2022-10-20T05:38:21;95395.47;;;11.41;68.74
56831;BME280;42713;42.676;23.352;2022-10-20T05:40:47;95397.94;;;11.48;68.22
56831;BME280;42713;42.676;23.352;2022-10-20T05:43:12;95403.09;;;11.43;68.35
56831;BME280;42713;42.676;23.352;2022-10-20T05:45:38;95413.13;;;11.46;68.40
56831;BME280;42713;42.676;23.352;2022-10-20T05:48:04;95430.44;;;11.47;67.67
56831;BME280;42713;42.676;23.352;2022-10-20T05:50:30;95427.16;;;11.40;68.52
56831;BME280;42713;42.676;23.352;2022-10-20T05:52:55;95422.81;;;11.45;68.27
56831;BME280;42713;42.676;23.352;2022-10-20T05:55:22;95433.66;;;11.49;68.16
56831;BME280;42713;42.676;23.352;2022-10-20T05:57:51;95435.81;;;11.52;68.17
56831;BME280;42713;42.676;23.352;2022-10-20T06:00:17;95441.06;;;11.52;68.65
56831;BME280;42713;42.676;23.352;2022-10-20T06:02:54;95439.72;;;11.49;68.54
56831;BME280;42713;42.676;23.352;2022-10-20T06:05:20;95450.06;;;11.56;68.77
56831;BME280;42713;42.676;23.352;2022-10-20T06:07:45;95451.91;;;11.56;69.24
56831;BME280;42713;42.676;23.352;2022-10-20T06:10:10;95473.88;;;11.66;69.27
56831;BME280;42713;42.676;23.352;2022-10-20T06:12:36;95463.63;;;11.65;68.93
56831;BME280;42713;42.676;23.352;2022-10-20T06:15:01;95467.97;;;11.59;69.66
56831;BME280;42713;42.676;23.352;2022-10-20T06:17:27;95473.00;;;11.61;70.13
56831;BME280;42713;42.676;23.352;2022-10-20T06:19:52;95481.09;;;11.59;69.71
56831;BME280;42713;42.676;23.352;2022-10-20T06:22:18;95466.94;;;11.60;69.38
56831;BME280;42713;42.676;23.352;2022-10-20T06:24:44;95470.84;;;11.58;69.79
56831;BME280;42713;42.676;23.352;2022-10-20T06:27:09;95472.66;;;11.57;69.86
56831;BME280;42713;42.676;23.352;2022-10-20T06:29:35;95478.72;;;11.58;70.27
56831;BME280;42713;42.676;23.352;2022-10-20T06:32:01;95474.47;;;11.57;70.42
56831;BME280;42713;42.676;23.352;2022-10-20T06:34:26;95480.41;;;11.64;70.46
56831;BME280;42713;42.676;23.352;2022-10-20T06:36:54;95487.13;;;11.72;70.54
56831;BME280;42713;42.676;23.352;2022-10-20T06:39:21;95488.03;;;11.77;69.94
56831;BME280;42713;42.676;23.352;2022-10-20T06:41:48;95488.94;;;11.83;70.03
56831;BME280;42713;42.676;23.352;2022-10-20T06:44:19;95492.94;;;11.86;70.44
56831;BME280;42713;42.676;23.352;2022-10-20T06:46:45;95496.13;;;11.88;70.33
56831;BME280;42713;42.676;23.352;2022-10-20T06:49:13;95488.25;;;11.88;70.17
56831;BME280;42713;42.676;23.352;2022-10-20T06:51:39;95499.91;;;11.80;70.39
56831;BME280;42713;42.676;23.352;2022-10-20T06:54:05;95503.56;;;11.79;70.92
56831;BME280;42713;42.676;23.352;2022-10-20T06:56:33;95511.31;;;11.86;70.52
56831;BME280;42713;42.676;23.352;2022-10-20T06:59:00;95505.59;;;11.89;70.48
56831;BME280;42713;42.676;23.352;2022-10-20T07:01:27;95494.19;;;11.95;70.06
56831;BME280;42713;42.676;23.352;2022-10-20T07:03:56;95503.56;;;12.03;69.94
56831;BME280;42713;42.676;23.352;2022-10-20T07:06:27;95506.22;;;12.20;68.88
56831;BME280;42713;42.676;23.352;2022-10-20T07:08:53;95502.38;;;12.22;68.69
56831;BME280;42713;42.676;23.352;2022-10-20T07:11:24;95495.28;;;12.23;68.96
56831;BME280;42713;42.676;23.352;2022-10-20T07:13:50;95501.75;;;12.32;68.43
56831;BME280;42713;42.676;23.352;2022-10-20T07:16:19;95514.31;;;12.30;67.62
56831;BME280;42713;42.676;23.352;2022-10-20T07:18:45;95509.69;;;12.20;68.04
56831;BME280;42713;42.676;23.352;2022-10-20T07:21:14;95502.38;;;12.10;68.53
56831;BME280;42713;42.676;23.352;2022-10-20T07:23:41;95506.19;;;12.03;67.64
56831;BME280;42713;42.676;23.352;2022-10-20T07:26:12;95517.47;;;11.91;68.22
56831;BME280;42713;42.676;23.352;2022-10-20T07:28:42;95499.88;;;11.92;68.28
56831;BME280;42713;42.676;23.352;2022-10-20T07:31:14;95520.09;;;11.91;68.37
56831;BME280;42713;42.676;23.352;2022-10-20T07:33:40;95515.88;;;11.90;68.17
56831;BME280;42713;42.676;23.352;2022-10-20T07:36:21;95507.06;;;11.96;68.53
56831;BME280;42713;42.676;23.352;2022-10-20T07:38:48;95506.63;;;11.99;68.12
56831;BME280;42713;42.676;23.352;2022-10-20T07:41:15;95501.25;;;12.06;67.98
56831;BME280;42713;42.676;23.352;2022-10-20T07:43:41;95504.66;;;12.19;67.51
56831;BME280;42713;42.676;23.352;2022-10-20T07:46:08;95519.72;;;12.23;67.08
56831;BME280;42713;42.676;23.352;2022-10-20T07:48:34;95517.31;;;12.22;66.41
56831;BME280;42713;42.676;23.352;2022-10-20T07:51:15;95502.94;;;12.24;68.00
56831;BME280;42713;42.676;23.352;2022-10-20T07:53:41;95499.44;;;12.36;66.56
56831;BME280;42713;42.676;23.352;2022-10-20T07:56:07;95502.09;;;12.36;65.70
56831;BME280;42713;42.676;23.352;2022-10-20T07:58:32;95485.53;;;12.35;66.62
56831;BME280;42713;42.676;23.352;2022-10-20T08:00:58;95483.34;;;12.44;65.56
56831;BME280;42713;42.676;23.352;2022-10-20T08:03:23;95490.41;;;12.43;65.47
56831;BME280;42713;42.676;23.352;2022-10-20T08:05:49;95494.19;;;12.48;65.41
56831;BME280;42713;42.676;23.352;2022-10-20T08:08:15;95504.75;;;12.53;64.91
56831;BME280;42713;42.676;23.352;2022-10-20T08:10:40;95487.66;;;12.50;65.00
56831;BME280;42713;42.676;23.352;2022-10-20T08:13:06;95493.97;;;12.66;64.25
56831;BME280;42713;42.676;23.352;2022-10-20T08:15:31;95495.00;;;12.65;63.79
56831;BME280;42713;42.676;23.352;2022-10-20T08:17:57;95507.00;;;12.61;63.42
56831;BME280;42713;42.676;23.352;2022-10-20T08:20:22;95486.13;;;12.54;63.95
56831;BME280;42713;42.676;23.352;2022-10-20T08:22:48;95502.47;;;12.56;63.60
56831;BME280;42713;42.676;23.352;2022-10-20T08:25:13;95497.63;;;12.65;62.87
56831;BME280;42713;42.676;23.352;2022-10-20T08:27:39;95490.22;;;12.62;63.07
56831;BME280;42713;42.676;23.352;2022-10-20T08:30:05;95504.38;;;12.61;62.32
56831;BME280;42713;42.676;23.352;2022-10-20T08:32:30;95486.38;;;12.53;62.80
56831;BME280;42713;42.676;23.352;2022-10-20T08:34:56;95513.09;;;12.61;62.32
56831;BME280;42713;42.676;23.352;2022-10-20T08:37:21;95478.91;;;12.61;61.86
56831;BME280;42713;42.676;23.352;2022-10-20T08:39:47;95490.22;;;12.62;61.04
56831;BME280;42713;42.676;23.352;2022-10-20T08:42:12;95476.84;;;12.64;61.40
56831;BME280;42713;42.676;23.352;2022-10-20T08:44:40;95486.81;;;12.79;60.89
56831;BME280;42713;42.676;23.352;2022-10-20T08:47:18;95483.31;;;12.73;59.94
56831;BME280;42713;42.676;23.352;2022-10-20T08:49:46;95476.16;;;12.85;60.89
56831;BME280;42713;42.676;23.352;2022-10-20T08:52:12;95482.41;;;12.96;58.87
56831;BME280;42713;42.676;23.352;2022-10-20T08:54:45;95498.81;;;13.03;58.47
56831;BME280;42713;42.676;23.352;2022-10-20T08:57:19;95471.84;;;13.13;58.03
56831;BME280;42713;42.676;23.352;2022-10-20T08:59:46;95471.47;;;13.21;57.43
56831;BME280;42713;42.676;23.352;2022-10-20T09:02:16;95473.72;;;13.30;56.95
56831;BME280;42713;42.676;23.352;2022-10-20T09:04:48;95483.34;;;13.24;56.50
56831;BME280;42713;42.676;23.352;2022-10-20T09:07:27;95482.38;;;13.30;56.70
56831;BME280;42713;42.676;23.352;2022-10-20T09:10:01;95480.63;;;13.36;57.25
56831;BME280;42713;42.676;23.352;2022-10-20T09:12:27;95474.41;;;13.42;56.64
56831;BME280;42713;42.676;23.352;2022-10-20T09:14:54;95481.13;;;13.50;55.59
56831;BME280;42713;42.676;23.352;2022-10-20T09:17:21;95480.69;;;13.58;55.60
56831;BME280;42713;42.676;23.352;2022-10-20T09:19:55;95477.59;;;13.61;54.49
56831;BME280;42713;42.676;23.352;2022-10-20T09:22:23;95480.84;;;13.68;53.53
56831;BME280;42713;42.676;23.352;2022-10-20T09:24:56;95481.97;;;13.73;53.68
56831;BME280;42713;42.676;23.352;2022-10-20T09:29:49;95475.63;;;13.91;52.22
56831;BME280;42713;42.676;23.352;2022-10-20T09:32:30;95460.84;;;13.90;52.18
56831;BME280;42713;42.676;23.352;2022-10-20T09:40:34;95481.44;;;14.15;50.39
56831;BME280;42713;42.676;23.352;2022-10-20T09:43:14;95477.13;;;14.09;50.08
56831;BME280;42713;42.676;23.352;2022-10-20T09:46:08;95474.06;;;14.17;49.74
56831;BME280;42713;42.676;23.352;2022-10-20T09:48:38;95469.66;;;14.23;50.39
56831;BME280;42713;42.676;23.352;2022-10-20T09:51:06;95456.78;;;14.26;49.98
56831;BME280;42713;42.676;23.352;2022-10-20T09:53:58;95467.94;;;14.34;49.56
56831;BME280;42713;42.676;23.352;2022-10-20T09:56:26;95474.56;;;14.36;48.22
56831;BME280;42713;42.676;23.352;2022-10-20T09:58:53;95464.28;;;14.35;48.10
56831;BME280;42713;42.676;23.352;2022-10-20T10:01:20;95465.06;;;14.35;48.71
56831;BME280;42713;42.676;23.352;2022-10-20T10:03:47;95455.06;;;14.37;46.98
56831;BME280;42713;42.676;23.352;2022-10-20T10:09:24;95460.63;;;14.41;47.79
56831;BME280;42713;42.676;23.352;2022-10-20T10:14:36;95439.06;;;14.44;48.03
56831;BME280;42713;42.676;23.352;2022-10-20T10:17:03;95450.22;;;14.56;47.56
56831;BME280;42713;42.676;23.352;2022-10-20T10:19:30;95436.31;;;14.61;46.52
56831;BME280;42713;42.676;23.352;2022-10-20T10:22:00;95449.63;;;14.71;46.71
56831;BME280;42713;42.676;23.352;2022-10-20T10:27:28;95448.81;;;14.71;46.65
56831;BME280;42713;42.676;23.352;2022-10-20T10:30:18;95442.44;;;14.67;45.07
56831;BME280;42713;42.676;23.352;2022-10-20T10:32:46;95438.56;;;14.74;45.40
56831;BME280;42713;42.676;23.352;2022-10-20T10:35:19;95435.75;;;14.86;45.36
56831;BME280;42713;42.676;23.352;2022-10-20T10:37:47;95433.19;;;14.91;44.97
56831;BME280;42713;42.676;23.352;2022-10-20T10:53:40;95423.06;;;15.16;44.33
56831;BME280;42713;42.676;23.352;2022-10-20T10:56:22;95421.50;;;15.20;43.55
56831;BME280;42713;42.676;23.352;2022-10-20T11:28:54;95392.84;;;15.92;41.94
56831;BME280;42713;42.676;23.352;2022-10-20T11:34:13;95401.81;;;15.86;41.61
56831;BME280;42713;42.676;23.352;2022-10-20T11:36:49;95387.03;;;15.85;42.31
56831;BME280;42713;42.676;23.352;2022-10-20T11:39:41;95381.50;;;15.97;41.24
56831;BME280;42713;42.676;23.352;2022-10-20T11:42:31;95367.22;;;15.93;41.75
56831;BME280;42713;42.676;23.352;2022-10-20T11:45:01;95375.69;;;15.95;41.81
56831;BME280;42713;42.676;23.352;2022-10-20T11:47:38;95370.66;;;15.93;42.15
56831;BME280;42713;42.676;23.352;2022-10-20T11:50:06;95369.63;;;15.94;42.21
56831;BME280;42713;42.676;23.352;2022-10-20T11:55:03;95378.91;;;16.12;40.96
56831;BME280;42713;42.676;23.352;2022-10-20T12:00:21;95360.44;;;16.28;39.82
56831;BME280;42713;42.676;23.352;2022-10-20T12:16:07;95351.19;;;16.82;39.20
56831;BME280;42713;42.676;23.352;2022-10-20T12:18:34;95348.56;;;16.98;39.93
56831;BME280;42713;42.676;23.352;2022-10-20T12:21:09;95342.44;;;17.18;41.00
56831;BME280;42713;42.676;23.352;2022-10-20T12:23:54;95356.72;;;17.27;39.53
56831;BME280;42713;42.676;23.352;2022-10-20T12:28:59;95344.84;;;17.09;38.68
56831;BME280;42713;42.676;23.352;2022-10-20T12:34:38;95339.56;;;16.99;39.77
56831;BME280;42713;42.676;23.352;2022-10-20T12:37:14;95353.31;;;16.95;39.58
56831;BME280;42713;42.676;23.352;2022-10-20T12:39:41;95343.78;;;16.89;39.54
56831;BME280;42713;42.676;23.352;2022-10-20T12:42:18;95356.47;;;16.87;40.97
56831;BME280;42713;42.676;23.352;2022-10-20T12:44:45;95350.66;;;16.85;39.05
56831;BME280;42713;42.676;23.352;2022-10-20T12:47:22;95338.22;;;16.91;39.26
56831;BME280;42713;42.676;23.352;2022-10-20T12:49:59;95341.09;;;17.15;42.05
56831;BME280;42713;42.676;23.352;2022-10-20T12:52:34;95327.13;;;17.09;39.86
56831;BME280;42713;42.676;23.352;2022-10-20T12:55:16;95354.03;;;17.32;40.08
56831;BME280;42713;42.676;23.352;2022-10-20T12:57:43;95342.34;;;17.49;39.37
56831;BME280;42713;42.676;23.352;2022-10-20T13:02:54;95349.31;;;18.00;37.81
56831;BME280;42713;42.676;23.352;2022-10-20T13:10:43;95345.06;;;18.73;37.44
56831;BME280;42713;42.676;23.352;2022-10-20T13:18:14;95363.41;;;19.34;35.50
56831;BME280;42713;42.676;23.352;2022-10-20T13:23:40;95349.22;;;19.43;35.42
56831;BME280;42713;42.676;23.352;2022-10-20T13:26:25;95346.38;;;19.59;35.33
56831;BME280;42713;42.676;23.352;2022-10-20T13:28:57;95338.00;;;19.71;34.86
56831;BME280;42713;42.676;23.352;2022-10-20T13:31:37;95343.94;;;19.87;34.46
56831;BME280;42713;42.676;23.352;2022-10-20T13:34:36;95356.25;;;20.02;34.14
56831;BME280;42713;42.676;23.352;2022-10-20T13:40:19;95337.97;;;20.33;33.53
56831;BME280;42713;42.676;23.352;2022-10-20T13:45:27;95346.56;;;20.63;32.51
56831;BME280;42713;42.676;23.352;2022-10-20T13:48:02;95339.28;;;20.69;31.67
56831;BME280;42713;42.676;23.352;2022-10-20T13:50:36;95348.06;;;20.89;33.12
56831;BME280;42713;42.676;23.352;2022-10-20T13:53:18;95332.47;;;20.96;32.29
56831;BME280;42713;42.676;23.352;2022-10-20T13:56:04;95327.00;;;21.20;31.43
56831;BME280;42713;42.676;23.352;2022-10-20T13:58:29;95340.44;;;21.29;31.48
56831;BME280;42713;42.676;23.352;2022-10-20T14:03:29;95342.69;;;21.50;30.24
56831;BME280;42713;42.676;23.352;2022-10-20T14:05:54;95353.84;;;21.52;29.81
56831;BME280;42713;42.676;23.352;2022-10-20T14:08:20;95351.16;;;21.52;29.98
56831;BME280;42713;42.676;23.352;2022-10-20T14:11:02;95341.50;;;21.56;30.24
56831;BME280;42713;42.676;23.352;2022-10-20T14:13:33;95336.31;;;21.65;30.15
56831;BME280;42713;42.676;23.352;2022-10-20T14:16:03;95349.91;;;21.63;29.45
56831;BME280;42713;42.676;23.352;2022-10-20T14:18:34;95342.09;;;21.53;29.80
56831;BME280;42713;42.676;23.352;2022-10-20T14:21:21;95339.94;;;21.69;29.22
56831;BME280;42713;42.676;23.352;2022-10-20T14:23:49;95340.34;;;21.62;29.57
56831;BME280;42713;42.676;23.352;2022-10-20T14:26:18;95346.03;;;21.27;30.19
56831;BME280;42713;42.676;23.352;2022-10-20T14:28:45;95340.63;;;21.33;30.24
56831;BME280;42713;42.676;23.352;2022-10-20T14:31:12;95337.34;;;21.36;31.20
56831;BME280;42713;42.676;23.352;2022-10-20T14:33:43;95341.19;;;21.43;30.86
56831;BME280;42713;42.676;23.352;2022-10-20T14:36:28;95338.53;;;21.15;29.78
56831;BME280;42713;42.676;23.352;2022-10-20T14:38:58;95341.03;;;20.60;29.89
56831;BME280;42713;42.676;23.352;2022-10-20T14:41:31;95338.22;;;20.70;31.20
56831;BME280;42713;42.676;23.352;2022-10-20T14:44:05;95338.44;;;20.55;31.12
56831;BME280;42713;42.676;23.352;2022-10-20T14:46:40;95342.53;;;20.66;31.24
56831;BME280;42713;42.676;23.352;2022-10-20T14:49:36;95353.34;;;20.75;31.30
56831;BME280;42713;42.676;23.352;2022-10-20T14:54:43;95357.75;;;20.46;31.52
56831;BME280;42713;42.676;23.352;2022-10-20T14:59:36;95340.84;;;20.56;31.07
56831;BME280;42713;42.676;23.352;2022-10-20T15:02:16;95349.34;;;20.39;31.47
56831;BME280;42713;42.676;23.352;2022-10-20T15:04:46;95351.72;;;20.21;32.34
56831;BME280;42713;42.676;23.352;2022-10-20T15:07:38;95345.91;;;19.76;32.07
56831;BME280;42713;42.676;23.352;2022-10-20T15:10:11;95354.47;;;19.73;32.65
56831;BME280;42713;42.676;23.352;2022-10-20T15:12:41;95359.69;;;19.78;33.45
56831;BME280;42713;42.676;23.352;2022-10-20T15:18:21;95366.94;;;19.72;33.46
56831;BME280;42713;42.676;23.352;2022-10-20T15:28:30;95368.09;;;18.48;35.04
56831;BME280;42713;42.676;23.352;2022-10-20T15:30:59;95368.03;;;18.14;35.76